sensor_id;sensor_type;location;lat;lon;timestamp;P1;durP1;ratioP1;P2;durP2;ratioP2
20794;SDS011;28087;-33.874;151.240;2022-09-14T00:00:40;1.85;;;0.60;;
20794;SDS011;28087;-33.874;151.240;2022-09-14T00:03:39;3.28;;;0.70;;
20794;SDS011;28087;-33.874;151.240;2022-09-14T00:06:16;3.25;;;0.80;;
20794;SDS011;28087;-33.874;151.240;2022-09-14T00:08:53;4.72;;;0.82;;
20794;SDS011;28087;-33.874;151.240;2022-09-14T00:11:30;3.85;;;0.68;;
20794;SDS011;28087;-33.874;151.240;2022-09-14T00:14:07;2.58;;;0.70;;
20794;SDS011;28087;-33.874;151.240;2022-09-14T00:16:44;3.53;;;0.73;;
20794;SDS011;28087;-33.874;151.240;2022-09-14T00:19:19;8.68;;;0.90;;
20794;SDS011;28087;-33.874;151.240;2022-09-14T00:21:55;3.75;;;0.90;;
20794;SDS011;28087;-33.874;151.240;2022-09-14T00:24:35;4.88;;;0.90;;
20794;SDS011;28087;-33.874;151.240;2022-09-14T00:27:09;3.25;;;0.70;;
20794;SDS011;28087;-33.874;151.240;2022-09-14T00:29:44;24.92;;;1.67;;
20794;SDS011;28087;-33.874;151.240;2022-09-14T00:32:20;2.55;;;0.80;;
20794;SDS011;28087;-33.874;151.240;2022-09-14T00:34:57;7.93;;;0.90;;
20794;SDS011;28087;-33.874;151.240;2022-09-14T00:37:31;5.30;;;1.02;;
20794;SDS011;28087;-33.874;151.240;2022-09-14T00:40:08;6.00;;;0.80;;
20794;SDS011;28087;-33.874;151.240;2022-09-14T00:42:44;3.33;;;0.80;;
20794;SDS011;28087;-33.874;151.240;2022-09-14T00:45:20;2.60;;;0.70;;
20794;SDS011;28087;-33.874;151.240;2022-09-14T00:47:57;8.57;;;0.90;;
20794;SDS011;28087;-33.874;151.240;2022-09-14T00:50:33;3.13;;;0.85;;
20794;SDS011;28087;-33.874;151.240;2022-09-14T00:53:17;5.03;;;0.80;;
20794;SDS011;28087;-33.874;151.240;2022-09-14T00:55:55;2.30;;;0.68;;
20794;SDS011;28087;-33.874;151.240;2022-09-14T00:58:30;2.50;;;0.50;;
20794;SDS011;28087;-33.874;151.240;2022-09-14T01:01:07;1.90;;;0.57;;
20794;SDS011;28087;-33.874;151.240;2022-09-14T01:03:43;1.33;;;0.40;;
20794;SDS011;28087;-33.874;151.240;2022-09-14T01:06:20;2.53;;;0.60;;
20794;SDS011;28087;-33.874;151.240;2022-09-14T01:09:12;2.65;;;0.50;;
20794;SDS011;28087;-33.874;151.240;2022-09-14T01:12:04;3.65;;;0.70;;
20794;SDS011;28087;-33.874;151.240;2022-09-14T01:14:49;3.65;;;0.80;;
20794;SDS011;28087;-33.874;151.240;2022-09-14T01:17:32;8.02;;;1.02;;
20794;SDS011;28087;-33.874;151.240;2022-09-14T01:20:16;3.40;;;0.70;;
20794;SDS011;28087;-33.874;151.240;2022-09-14T01:22:58;1.35;;;0.57;;
20794;SDS011;28087;-33.874;151.240;2022-09-14T01:26:02;3.05;;;0.60;;
20794;SDS011;28087;-33.874;151.240;2022-09-14T01:28:58;4.05;;;0.80;;
20794;SDS011;28087;-33.874;151.240;2022-09-14T01:31:42;2.97;;;0.70;;
20794;SDS011;28087;-33.874;151.240;2022-09-14T01:34:26;3.42;;;0.70;;
20794;SDS011;28087;-33.874;151.240;2022-09-14T01:37:09;3.15;;;0.60;;
20794;SDS011;28087;-33.874;151.240;2022-09-14T01:39:50;1.77;;;0.50;;
20794;SDS011;28087;-33.874;151.240;2022-09-14T01:42:30;2.83;;;0.60;;
20794;SDS011;28087;-33.874;151.240;2022-09-14T01:45:10;3.03;;;0.80;;
20794;SDS011;28087;-33.874;151.240;2022-09-14T01:47:50;3.60;;;0.75;;
20794;SDS011;28087;-33.874;151.240;2022-09-14T01:50:30;1.05;;;0.50;;
20794;SDS011;28087;-33.874;151.240;2022-09-14T01:53:10;3.17;;;0.75;;
20794;SDS011;28087;-33.874;151.240;2022-09-14T01:55:49;2.83;;;0.80;;
20794;SDS011;28087;-33.874;151.240;2022-09-14T01:58:29;2.10;;;0.65;;
20794;SDS011;28087;-33.874;151.240;2022-09-14T02:01:11;1.85;;;0.55;;
20794;SDS011;28087;-33.874;151.240;2022-09-14T02:03:51;1.60;;;0.50;;
20794;SDS011;28087;-33.874;151.240;2022-09-14T02:06:33;3.45;;;0.47;;
20794;SDS011;28087;-33.874;151.240;2022-09-14T02:09:09;2.55;;;0.60;;
20794;SDS011;28087;-33.874;151.240;2022-09-14T02:11:47;4.00;;;0.70;;
20794;SDS011;28087;-33.874;151.240;2022-09-14T02:14:21;1.38;;;0.40;;
20794;SDS011;28087;-33.874;151.240;2022-09-14T02:17:00;2.83;;;0.60;;
20794;SDS011;28087;-33.874;151.240;2022-09-14T02:19:39;3.58;;;0.55;;
20794;SDS011;28087;-33.874;151.240;2022-09-14T02:22:17;4.88;;;0.80;;
20794;SDS011;28087;-33.874;151.240;2022-09-14T02:24:52;1.58;;;0.50;;
20794;SDS011;28087;-33.874;151.240;2022-09-14T02:27:27;2.90;;;0.60;;
20794;SDS011;28087;-33.874;151.240;2022-09-14T02:30:04;3.25;;;0.60;;
20794;SDS011;28087;-33.874;151.240;2022-09-14T02:32:43;2.10;;;0.40;;
20794;SDS011;28087;-33.874;151.240;2022-09-14T02:35:22;1.33;;;0.40;;
20794;SDS011;28087;-33.874;151.240;2022-09-14T02:38:03;3.00;;;0.50;;
20794;SDS011;28087;-33.874;151.240;2022-09-14T02:40:45;3.58;;;0.70;;
20794;SDS011;28087;-33.874;151.240;2022-09-14T02:43:29;2.88;;;0.50;;
20794;SDS011;28087;-33.874;151.240;2022-09-14T02:46:08;3.00;;;0.60;;
20794;SDS011;28087;-33.874;151.240;2022-09-14T02:48:53;5.10;;;0.70;;
20794;SDS011;28087;-33.874;151.240;2022-09-14T02:51:38;3.95;;;0.65;;
20794;SDS011;28087;-33.874;151.240;2022-09-14T02:54:20;4.03;;;0.60;;
20794;SDS011;28087;-33.874;151.240;2022-09-14T02:57:00;4.47;;;0.70;;
20794;SDS011;28087;-33.874;151.240;2022-09-14T02:59:39;2.33;;;0.60;;
20794;SDS011;28087;-33.874;151.240;2022-09-14T03:02:14;2.35;;;0.70;;
20794;SDS011;28087;-33.874;151.240;2022-09-14T03:05:10;1.65;;;0.50;;
20794;SDS011;28087;-33.874;151.240;2022-09-14T03:07:47;1.90;;;0.60;;
20794;SDS011;28087;-33.874;151.240;2022-09-14T03:10:23;1.17;;;0.50;;
20794;SDS011;28087;-33.874;151.240;2022-09-14T03:13:01;3.30;;;0.50;;
20794;SDS011;28087;-33.874;151.240;2022-09-14T03:15:37;3.35;;;0.52;;
20794;SDS011;28087;-33.874;151.240;2022-09-14T03:18:12;2.17;;;0.40;;
20794;SDS011;28087;-33.874;151.240;2022-09-14T03:20:50;1.60;;;0.55;;
20794;SDS011;28087;-33.874;151.240;2022-09-14T03:23:25;2.47;;;0.60;;
20794;SDS011;28087;-33.874;151.240;2022-09-14T03:26:00;1.15;;;0.40;;
20794;SDS011;28087;-33.874;151.240;2022-09-14T03:28:39;1.38;;;0.40;;
20794;SDS011;28087;-33.874;151.240;2022-09-14T03:31:15;1.33;;;0.50;;
20794;SDS011;28087;-33.874;151.240;2022-09-14T03:33:51;1.23;;;0.50;;
20794;SDS011;28087;-33.874;151.240;2022-09-14T03:36:29;2.05;;;0.60;;
20794;SDS011;28087;-33.874;151.240;2022-09-14T03:39:05;1.95;;;0.50;;
20794;SDS011;28087;-33.874;151.240;2022-09-14T03:41:40;1.52;;;0.50;;
20794;SDS011;28087;-33.874;151.240;2022-09-14T03:44:16;2.15;;;0.50;;
20794;SDS011;28087;-33.874;151.240;2022-09-14T03:46:51;2.28;;;0.60;;
20794;SDS011;28087;-33.874;151.240;2022-09-14T03:49:26;2.13;;;0.50;;
20794;SDS011;28087;-33.874;151.240;2022-09-14T03:52:05;1.77;;;0.50;;
20794;SDS011;28087;-33.874;151.240;2022-09-14T03:54:41;2.33;;;0.40;;
20794;SDS011;28087;-33.874;151.240;2022-09-14T03:57:17;1.98;;;0.50;;
20794;SDS011;28087;-33.874;151.240;2022-09-14T03:59:52;2.63;;;0.60;;
20794;SDS011;28087;-33.874;151.240;2022-09-14T04:02:38;3.30;;;0.45;;
20794;SDS011;28087;-33.874;151.240;2022-09-14T04:05:14;2.92;;;0.45;;
20794;SDS011;28087;-33.874;151.240;2022-09-14T04:07:52;1.58;;;0.45;;
20794;SDS011;28087;-33.874;151.240;2022-09-14T04:10:28;1.38;;;0.45;;
20794;SDS011;28087;-33.874;151.240;2022-09-14T04:13:03;1.40;;;0.40;;
20794;SDS011;28087;-33.874;151.240;2022-09-14T04:15:40;2.90;;;0.50;;
20794;SDS011;28087;-33.874;151.240;2022-09-14T04:18:15;0.85;;;0.40;;
20794;SDS011;28087;-33.874;151.240;2022-09-14T04:20:54;1.73;;;0.45;;
20794;SDS011;28087;-33.874;151.240;2022-09-14T04:23:41;2.13;;;0.40;;
20794;SDS011;28087;-33.874;151.240;2022-09-14T04:26:37;2.05;;;0.40;;
20794;SDS011;28087;-33.874;151.240;2022-09-14T04:29:13;3.70;;;0.68;;
20794;SDS011;28087;-33.874;151.240;2022-09-14T04:31:48;2.25;;;0.50;;
20794;SDS011;28087;-33.874;151.240;2022-09-14T04:34:23;2.35;;;0.50;;
20794;SDS011;28087;-33.874;151.240;2022-09-14T04:36:58;1.77;;;0.47;;
20794;SDS011;28087;-33.874;151.240;2022-09-14T04:39:35;0.57;;;0.30;;
20794;SDS011;28087;-33.874;151.240;2022-09-14T04:42:13;1.58;;;0.40;;
20794;SDS011;28087;-33.874;151.240;2022-09-14T04:44:48;1.48;;;0.40;;
20794;SDS011;28087;-33.874;151.240;2022-09-14T04:47:23;1.83;;;0.50;;
20794;SDS011;28087;-33.874;151.240;2022-09-14T04:50:00;2.38;;;0.43;;
20794;SDS011;28087;-33.874;151.240;2022-09-14T04:52:36;0.57;;;0.40;;
20794;SDS011;28087;-33.874;151.240;2022-09-14T04:55:13;1.92;;;0.50;;
20794;SDS011;28087;-33.874;151.240;2022-09-14T04:57:48;2.13;;;0.50;;
20794;SDS011;28087;-33.874;151.240;2022-09-14T05:00:23;2.80;;;0.52;;
20794;SDS011;28087;-33.874;151.240;2022-09-14T05:02:59;2.65;;;0.50;;
20794;SDS011;28087;-33.874;151.240;2022-09-14T05:05:34;1.95;;;0.40;;
20794;SDS011;28087;-33.874;151.240;2022-09-14T05:08:31;1.65;;;0.52;;
20794;SDS011;28087;-33.874;151.240;2022-09-14T05:11:12;2.65;;;0.40;;
20794;SDS011;28087;-33.874;151.240;2022-09-14T05:13:47;2.00;;;0.40;;
20794;SDS011;28087;-33.874;151.240;2022-09-14T05:16:23;2.30;;;0.50;;
20794;SDS011;28087;-33.874;151.240;2022-09-14T05:18:59;1.67;;;0.40;;
20794;SDS011;28087;-33.874;151.240;2022-09-14T05:21:36;1.52;;;0.40;;
20794;SDS011;28087;-33.874;151.240;2022-09-14T05:24:11;1.70;;;0.50;;
20794;SDS011;28087;-33.874;151.240;2022-09-14T05:26:50;1.08;;;0.45;;
20794;SDS011;28087;-33.874;151.240;2022-09-14T05:29:29;2.33;;;0.50;;
20794;SDS011;28087;-33.874;151.240;2022-09-14T05:32:05;4.30;;;0.65;;
20794;SDS011;28087;-33.874;151.240;2022-09-14T05:34:41;1.88;;;0.50;;
20794;SDS011;28087;-33.874;151.240;2022-09-14T05:37:17;3.10;;;0.50;;
20794;SDS011;28087;-33.874;151.240;2022-09-14T05:39:52;2.20;;;0.38;;
20794;SDS011;28087;-33.874;151.240;2022-09-14T05:42:30;1.77;;;0.50;;
20794;SDS011;28087;-33.874;151.240;2022-09-14T05:45:05;3.20;;;0.40;;
20794;SDS011;28087;-33.874;151.240;2022-09-14T05:47:41;1.77;;;0.50;;
20794;SDS011;28087;-33.874;151.240;2022-09-14T05:50:16;2.30;;;0.45;;
20794;SDS011;28087;-33.874;151.240;2022-09-14T05:52:52;2.25;;;0.40;;
20794;SDS011;28087;-33.874;151.240;2022-09-14T05:55:31;1.67;;;0.40;;
20794;SDS011;28087;-33.874;151.240;2022-09-14T05:58:08;2.22;;;0.50;;
20794;SDS011;28087;-33.874;151.240;2022-09-14T06:00:43;2.47;;;0.60;;
20794;SDS011;28087;-33.874;151.240;2022-09-14T06:03:19;1.83;;;0.52;;
20794;SDS011;28087;-33.874;151.240;2022-09-14T06:05:56;3.97;;;0.55;;
20794;SDS011;28087;-33.874;151.240;2022-09-14T06:08:33;2.25;;;0.52;;
20794;SDS011;28087;-33.874;151.240;2022-09-14T06:11:09;2.50;;;0.50;;
20794;SDS011;28087;-33.874;151.240;2022-09-14T06:13:48;2.42;;;0.50;;
20794;SDS011;28087;-33.874;151.240;2022-09-14T06:16:24;2.83;;;0.50;;
20794;SDS011;28087;-33.874;151.240;2022-09-14T06:19:01;3.00;;;0.50;;
20794;SDS011;28087;-33.874;151.240;2022-09-14T06:21:37;3.25;;;0.57;;
20794;SDS011;28087;-33.874;151.240;2022-09-14T06:24:12;2.78;;;0.60;;
20794;SDS011;28087;-33.874;151.240;2022-09-14T06:26:49;2.45;;;0.50;;
20794;SDS011;28087;-33.874;151.240;2022-09-14T06:29:28;2.83;;;0.50;;
20794;SDS011;28087;-33.874;151.240;2022-09-14T06:32:03;3.67;;;0.70;;
20794;SDS011;28087;-33.874;151.240;2022-09-14T06:34:40;4.47;;;0.73;;
20794;SDS011;28087;-33.874;151.240;2022-09-14T06:37:15;2.97;;;0.50;;
20794;SDS011;28087;-33.874;151.240;2022-09-14T06:39:51;2.42;;;0.52;;
20794;SDS011;28087;-33.874;151.240;2022-09-14T06:42:28;1.48;;;0.57;;
20794;SDS011;28087;-33.874;151.240;2022-09-14T06:45:06;5.07;;;0.70;;
20794;SDS011;28087;-33.874;151.240;2022-09-14T06:47:41;3.53;;;0.68;;
20794;SDS011;28087;-33.874;151.240;2022-09-14T06:50:17;2.45;;;0.70;;
20794;SDS011;28087;-33.874;151.240;2022-09-14T06:52:53;2.03;;;0.63;;
20794;SDS011;28087;-33.874;151.240;2022-09-14T06:55:28;6.40;;;0.73;;
20794;SDS011;28087;-33.874;151.240;2022-09-14T06:58:08;2.58;;;0.50;;
20794;SDS011;28087;-33.874;151.240;2022-09-14T07:00:46;2.33;;;0.60;;
20794;SDS011;28087;-33.874;151.240;2022-09-14T07:03:21;2.72;;;0.70;;
20794;SDS011;28087;-33.874;151.240;2022-09-14T07:06:00;4.03;;;0.70;;
20794;SDS011;28087;-33.874;151.240;2022-09-14T07:08:55;3.90;;;0.60;;
20794;SDS011;28087;-33.874;151.240;2022-09-14T07:11:34;2.78;;;0.63;;
20794;SDS011;28087;-33.874;151.240;2022-09-14T07:14:10;1.75;;;0.50;;
20794;SDS011;28087;-33.874;151.240;2022-09-14T07:16:47;1.63;;;0.50;;
20794;SDS011;28087;-33.874;151.240;2022-09-14T07:19:23;3.10;;;0.70;;
20794;SDS011;28087;-33.874;151.240;2022-09-14T07:21:59;4.10;;;0.70;;
20794;SDS011;28087;-33.874;151.240;2022-09-14T07:24:34;3.88;;;0.90;;
20794;SDS011;28087;-33.874;151.240;2022-09-14T07:27:09;5.65;;;0.75;;
20794;SDS011;28087;-33.874;151.240;2022-09-14T07:29:45;2.42;;;0.65;;
20794;SDS011;28087;-33.874;151.240;2022-09-14T07:32:22;4.45;;;0.60;;
20794;SDS011;28087;-33.874;151.240;2022-09-14T07:34:58;5.10;;;0.70;;
20794;SDS011;28087;-33.874;151.240;2022-09-14T07:37:33;2.92;;;0.60;;
20794;SDS011;28087;-33.874;151.240;2022-09-14T07:40:08;3.80;;;0.90;;
20794;SDS011;28087;-33.874;151.240;2022-09-14T07:42:49;5.07;;;0.80;;
20794;SDS011;28087;-33.874;151.240;2022-09-14T07:45:25;2.53;;;0.70;;
20794;SDS011;28087;-33.874;151.240;2022-09-14T07:48:03;4.82;;;0.80;;
20794;SDS011;28087;-33.874;151.240;2022-09-14T07:50:38;2.08;;;0.90;;
20794;SDS011;28087;-33.874;151.240;2022-09-14T07:53:14;5.20;;;0.90;;
20794;SDS011;28087;-33.874;151.240;2022-09-14T07:55:52;4.85;;;1.63;;
20794;SDS011;28087;-33.874;151.240;2022-09-14T07:58:30;5.85;;;0.90;;
20794;SDS011;28087;-33.874;151.240;2022-09-14T08:01:06;2.17;;;0.75;;
20794;SDS011;28087;-33.874;151.240;2022-09-14T08:03:45;4.28;;;0.70;;
20794;SDS011;28087;-33.874;151.240;2022-09-14T08:06:21;3.65;;;0.90;;
20794;SDS011;28087;-33.874;151.240;2022-09-14T08:08:59;3.40;;;0.73;;
20794;SDS011;28087;-33.874;151.240;2022-09-14T08:11:37;5.00;;;0.80;;
20794;SDS011;28087;-33.874;151.240;2022-09-14T08:14:12;2.15;;;0.70;;
20794;SDS011;28087;-33.874;151.240;2022-09-14T08:16:47;4.35;;;1.00;;
20794;SDS011;28087;-33.874;151.240;2022-09-14T08:19:25;5.05;;;1.00;;
20794;SDS011;28087;-33.874;151.240;2022-09-14T08:22:00;2.78;;;0.77;;
20794;SDS011;28087;-33.874;151.240;2022-09-14T08:24:34;3.75;;;0.98;;
20794;SDS011;28087;-33.874;151.240;2022-09-14T08:27:09;2.00;;;0.60;;
20794;SDS011;28087;-33.874;151.240;2022-09-14T08:29:44;2.28;;;0.60;;
20794;SDS011;28087;-33.874;151.240;2022-09-14T08:32:21;2.88;;;0.77;;
20794;SDS011;28087;-33.874;151.240;2022-09-14T08:34:58;2.38;;;0.70;;
20794;SDS011;28087;-33.874;151.240;2022-09-14T08:37:33;4.22;;;1.05;;
20794;SDS011;28087;-33.874;151.240;2022-09-14T08:40:08;2.85;;;0.80;;
20794;SDS011;28087;-33.874;151.240;2022-09-14T08:42:47;5.47;;;0.70;;
20794;SDS011;28087;-33.874;151.240;2022-09-14T08:45:23;5.75;;;0.70;;
20794;SDS011;28087;-33.874;151.240;2022-09-14T08:47:58;3.50;;;0.60;;
20794;SDS011;28087;-33.874;151.240;2022-09-14T08:50:37;2.70;;;0.52;;
20794;SDS011;28087;-33.874;151.240;2022-09-14T08:53:14;2.88;;;0.60;;
20794;SDS011;28087;-33.874;151.240;2022-09-14T08:55:49;3.60;;;0.60;;
20794;SDS011;28087;-33.874;151.240;2022-09-14T08:58:32;4.03;;;0.70;;
20794;SDS011;28087;-33.874;151.240;2022-09-14T09:01:19;2.65;;;0.70;;
20794;SDS011;28087;-33.874;151.240;2022-09-14T09:04:06;2.30;;;0.50;;
20794;SDS011;28087;-33.874;151.240;2022-09-14T09:06:58;1.83;;;0.70;;
20794;SDS011;28087;-33.874;151.240;2022-09-14T09:09:56;3.25;;;0.70;;
20794;SDS011;28087;-33.874;151.240;2022-09-14T09:12:33;4.85;;;0.70;;
20794;SDS011;28087;-33.874;151.240;2022-09-14T09:15:14;2.40;;;0.55;;
20794;SDS011;28087;-33.874;151.240;2022-09-14T09:18:03;3.25;;;0.70;;
20794;SDS011;28087;-33.874;151.240;2022-09-14T09:20:41;2.83;;;0.60;;
20794;SDS011;28087;-33.874;151.240;2022-09-14T09:23:19;3.47;;;0.60;;
20794;SDS011;28087;-33.874;151.240;2022-09-14T09:25:55;2.50;;;0.60;;
20794;SDS011;28087;-33.874;151.240;2022-09-14T09:28:33;3.20;;;0.60;;
20794;SDS011;28087;-33.874;151.240;2022-09-14T09:31:15;3.30;;;0.60;;
20794;SDS011;28087;-33.874;151.240;2022-09-14T09:34:14;1.92;;;0.60;;
20794;SDS011;28087;-33.874;151.240;2022-09-14T09:37:08;3.80;;;0.60;;
20794;SDS011;28087;-33.874;151.240;2022-09-14T09:39:49;4.22;;;0.60;;
20794;SDS011;28087;-33.874;151.240;2022-09-14T09:42:25;1.70;;;0.65;;
20794;SDS011;28087;-33.874;151.240;2022-09-14T09:45:04;4.47;;;0.88;;
20794;SDS011;28087;-33.874;151.240;2022-09-14T09:48:08;4.00;;;1.10;;
20794;SDS011;28087;-33.874;151.240;2022-09-14T09:50:48;3.92;;;0.80;;
20794;SDS011;28087;-33.874;151.240;2022-09-14T09:53:30;3.53;;;0.95;;
20794;SDS011;28087;-33.874;151.240;2022-09-14T09:56:11;3.28;;;0.68;;
20794;SDS011;28087;-33.874;151.240;2022-09-14T09:58:52;2.83;;;0.70;;
20794;SDS011;28087;-33.874;151.240;2022-09-14T10:01:27;3.05;;;0.80;;
20794;SDS011;28087;-33.874;151.240;2022-09-14T10:04:05;5.22;;;0.63;;
20794;SDS011;28087;-33.874;151.240;2022-09-14T10:06:48;2.42;;;0.70;;
20794;SDS011;28087;-33.874;151.240;2022-09-14T10:09:28;1.58;;;0.50;;
20794;SDS011;28087;-33.874;151.240;2022-09-14T10:12:10;3.25;;;0.77;;
20794;SDS011;28087;-33.874;151.240;2022-09-14T10:15:13;3.28;;;0.60;;
20794;SDS011;28087;-33.874;151.240;2022-09-14T10:17:54;2.75;;;0.80;;
20794;SDS011;28087;-33.874;151.240;2022-09-14T10:20:42;2.60;;;0.82;;
20794;SDS011;28087;-33.874;151.240;2022-09-14T10:23:40;4.45;;;1.00;;
20794;SDS011;28087;-33.874;151.240;2022-09-14T10:26:24;3.60;;;0.70;;
20794;SDS011;28087;-33.874;151.240;2022-09-14T10:32:18;2.63;;;0.70;;
20794;SDS011;28087;-33.874;151.240;2022-09-14T10:34:55;4.03;;;1.02;;
20794;SDS011;28087;-33.874;151.240;2022-09-14T10:37:32;5.88;;;0.90;;
20794;SDS011;28087;-33.874;151.240;2022-09-14T10:40:14;3.33;;;0.70;;
20794;SDS011;28087;-33.874;151.240;2022-09-14T10:42:56;2.47;;;0.77;;
20794;SDS011;28087;-33.874;151.240;2022-09-14T10:45:44;5.20;;;0.90;;
20794;SDS011;28087;-33.874;151.240;2022-09-14T10:48:26;4.85;;;0.82;;
20794;SDS011;28087;-33.874;151.240;2022-09-14T10:51:25;3.88;;;0.70;;
20794;SDS011;28087;-33.874;151.240;2022-09-14T10:54:10;2.15;;;0.70;;
20794;SDS011;28087;-33.874;151.240;2022-09-14T10:57:28;3.50;;;0.70;;
20794;SDS011;28087;-33.874;151.240;2022-09-14T11:00:11;3.72;;;0.80;;
20794;SDS011;28087;-33.874;151.240;2022-09-14T11:02:54;5.00;;;0.80;;
20794;SDS011;28087;-33.874;151.240;2022-09-14T11:05:34;5.88;;;1.13;;
20794;SDS011;28087;-33.874;151.240;2022-09-14T11:08:14;5.35;;;0.90;;
20794;SDS011;28087;-33.874;151.240;2022-09-14T11:11:08;4.13;;;0.68;;
20794;SDS011;28087;-33.874;151.240;2022-09-14T11:14:30;3.83;;;0.80;;
20794;SDS011;28087;-33.874;151.240;2022-09-14T11:17:39;4.35;;;0.60;;
20794;SDS011;28087;-33.874;151.240;2022-09-14T11:20:30;5.32;;;1.02;;
20794;SDS011;28087;-33.874;151.240;2022-09-14T11:23:17;4.32;;;0.63;;
20794;SDS011;28087;-33.874;151.240;2022-09-14T11:26:11;3.67;;;0.70;;
20794;SDS011;28087;-33.874;151.240;2022-09-14T11:28:49;5.65;;;0.85;;
20794;SDS011;28087;-33.874;151.240;2022-09-14T11:31:27;2.97;;;0.70;;
20794;SDS011;28087;-33.874;151.240;2022-09-14T11:34:39;5.25;;;0.70;;
20794;SDS011;28087;-33.874;151.240;2022-09-14T11:37:20;2.78;;;0.50;;
20794;SDS011;28087;-33.874;151.240;2022-09-14T11:40:02;3.75;;;0.85;;
20794;SDS011;28087;-33.874;151.240;2022-09-14T11:42:43;2.88;;;0.60;;
20794;SDS011;28087;-33.874;151.240;2022-09-14T11:45:26;5.82;;;0.80;;
20794;SDS011;28087;-33.874;151.240;2022-09-14T11:48:09;3.40;;;0.70;;
20794;SDS011;28087;-33.874;151.240;2022-09-14T11:51:08;3.95;;;1.00;;
20794;SDS011;28087;-33.874;151.240;2022-09-14T11:53:49;4.05;;;0.80;;
20794;SDS011;28087;-33.874;151.240;2022-09-14T11:56:25;4.85;;;1.08;;
20794;SDS011;28087;-33.874;151.240;2022-09-14T11:59:03;3.35;;;0.60;;
20794;SDS011;28087;-33.874;151.240;2022-09-14T12:01:39;7.25;;;1.10;;
20794;SDS011;28087;-33.874;151.240;2022-09-14T12:04:15;5.80;;;0.80;;
20794;SDS011;28087;-33.874;151.240;2022-09-14T12:06:54;5.03;;;1.00;;
20794;SDS011;28087;-33.874;151.240;2022-09-14T12:09:41;5.88;;;0.70;;
20794;SDS011;28087;-33.874;151.240;2022-09-14T12:12:26;6.47;;;0.80;;
20794;SDS011;28087;-33.874;151.240;2022-09-14T12:15:11;6.15;;;0.80;;
20794;SDS011;28087;-33.874;151.240;2022-09-14T12:21:00;5.43;;;0.88;;
20794;SDS011;28087;-33.874;151.240;2022-09-14T12:23:41;4.40;;;0.75;;
20794;SDS011;28087;-33.874;151.240;2022-09-14T12:29:26;4.50;;;1.02;;
20794;SDS011;28087;-33.874;151.240;2022-09-14T12:38:42;8.95;;;1.15;;
20794;SDS011;28087;-33.874;151.240;2022-09-14T12:45:00;4.03;;;0.70;;
20794;SDS011;28087;-33.874;151.240;2022-09-14T12:48:23;3.50;;;0.60;;
20794;SDS011;28087;-33.874;151.240;2022-09-14T12:51:38;4.18;;;0.85;;
20794;SDS011;28087;-33.874;151.240;2022-09-14T12:54:32;5.57;;;0.80;;
20794;SDS011;28087;-33.874;151.240;2022-09-14T12:57:24;4.70;;;1.00;;
20794;SDS011;28087;-33.874;151.240;2022-09-14T13:00:48;4.65;;;0.80;;
20794;SDS011;28087;-33.874;151.240;2022-09-14T13:06:22;3.47;;;0.60;;
20794;SDS011;28087;-33.874;151.240;2022-09-14T13:09:02;8.27;;;1.30;;
20794;SDS011;28087;-33.874;151.240;2022-09-14T13:11:41;3.75;;;0.90;;
20794;SDS011;28087;-33.874;151.240;2022-09-14T13:14:18;6.95;;;0.80;;
20794;SDS011;28087;-33.874;151.240;2022-09-14T13:17:17;3.97;;;0.85;;
20794;SDS011;28087;-33.874;151.240;2022-09-14T13:20:17;3.67;;;0.70;;
20794;SDS011;28087;-33.874;151.240;2022-09-14T13:22:54;3.90;;;0.80;;
20794;SDS011;28087;-33.874;151.240;2022-09-14T13:25:31;3.95;;;0.70;;
20794;SDS011;28087;-33.874;151.240;2022-09-14T13:28:26;4.05;;;0.77;;
20794;SDS011;28087;-33.874;151.240;2022-09-14T13:31:10;6.57;;;0.98;;
20794;SDS011;28087;-33.874;151.240;2022-09-14T13:33:48;5.82;;;0.82;;
20794;SDS011;28087;-33.874;151.240;2022-09-14T13:36:26;5.82;;;0.80;;
20794;SDS011;28087;-33.874;151.240;2022-09-14T13:39:07;5.57;;;0.77;;
20794;SDS011;28087;-33.874;151.240;2022-09-14T13:41:55;4.57;;;0.63;;
20794;SDS011;28087;-33.874;151.240;2022-09-14T13:44:37;5.68;;;1.00;;
20794;SDS011;28087;-33.874;151.240;2022-09-14T13:47:16;5.55;;;1.15;;
20794;SDS011;28087;-33.874;151.240;2022-09-14T13:49:56;5.65;;;1.08;;
20794;SDS011;28087;-33.874;151.240;2022-09-14T13:52:34;4.60;;;1.00;;
20794;SDS011;28087;-33.874;151.240;2022-09-14T13:55:41;6.63;;;1.15;;
20794;SDS011;28087;-33.874;151.240;2022-09-14T13:58:23;5.70;;;1.25;;
20794;SDS011;28087;-33.874;151.240;2022-09-14T14:01:03;6.57;;;1.20;;
20794;SDS011;28087;-33.874;151.240;2022-09-14T14:03:57;5.18;;;1.33;;
20794;SDS011;28087;-33.874;151.240;2022-09-14T14:06:34;4.63;;;1.10;;
20794;SDS011;28087;-33.874;151.240;2022-09-14T14:09:11;5.60;;;1.23;;
20794;SDS011;28087;-33.874;151.240;2022-09-14T14:11:50;5.57;;;1.35;;
20794;SDS011;28087;-33.874;151.240;2022-09-14T14:14:26;3.65;;;1.20;;
20794;SDS011;28087;-33.874;151.240;2022-09-14T14:17:36;5.03;;;1.20;;
20794;SDS011;28087;-33.874;151.240;2022-09-14T14:20:30;5.53;;;1.35;;
20794;SDS011;28087;-33.874;151.240;2022-09-14T14:23:18;6.40;;;1.20;;
20794;SDS011;28087;-33.874;151.240;2022-09-14T14:26:05;5.78;;;1.45;;
20794;SDS011;28087;-33.874;151.240;2022-09-14T14:28:42;9.68;;;1.20;;
20794;SDS011;28087;-33.874;151.240;2022-09-14T14:31:18;4.85;;;1.17;;
20794;SDS011;28087;-33.874;151.240;2022-09-14T14:34:09;4.93;;;1.25;;
20794;SDS011;28087;-33.874;151.240;2022-09-14T14:36:51;3.75;;;1.20;;
20794;SDS011;28087;-33.874;151.240;2022-09-14T14:39:29;7.28;;;1.10;;
20794;SDS011;28087;-33.874;151.240;2022-09-14T14:42:04;5.72;;;1.00;;
20794;SDS011;28087;-33.874;151.240;2022-09-14T14:45:00;5.38;;;1.10;;
20794;SDS011;28087;-33.874;151.240;2022-09-14T14:47:39;8.05;;;1.40;;
20794;SDS011;28087;-33.874;151.240;2022-09-14T14:50:15;6.95;;;1.00;;
20794;SDS011;28087;-33.874;151.240;2022-09-14T14:52:52;4.00;;;1.23;;
20794;SDS011;28087;-33.874;151.240;2022-09-14T14:55:30;5.28;;;1.00;;
20794;SDS011;28087;-33.874;151.240;2022-09-14T14:58:09;6.57;;;1.00;;
20794;SDS011;28087;-33.874;151.240;2022-09-14T15:00:48;6.68;;;1.38;;
20794;SDS011;28087;-33.874;151.240;2022-09-14T15:03:24;3.58;;;1.02;;
20794;SDS011;28087;-33.874;151.240;2022-09-14T15:05:59;8.45;;;1.55;;
20794;SDS011;28087;-33.874;151.240;2022-09-14T15:08:46;4.10;;;1.08;;
20794;SDS011;28087;-33.874;151.240;2022-09-14T15:11:27;3.92;;;1.20;;
20794;SDS011;28087;-33.874;151.240;2022-09-14T15:14:07;4.25;;;1.10;;
20794;SDS011;28087;-33.874;151.240;2022-09-14T15:16:44;5.88;;;1.30;;
20794;SDS011;28087;-33.874;151.240;2022-09-14T15:19:20;4.35;;;1.13;;
20794;SDS011;28087;-33.874;151.240;2022-09-14T15:21:56;4.18;;;1.17;;
20794;SDS011;28087;-33.874;151.240;2022-09-14T15:24:32;5.05;;;1.20;;
20794;SDS011;28087;-33.874;151.240;2022-09-14T15:27:09;4.40;;;1.15;;
20794;SDS011;28087;-33.874;151.240;2022-09-14T15:29:45;3.42;;;1.10;;
20794;SDS011;28087;-33.874;151.240;2022-09-14T15:32:20;6.85;;;1.35;;
20794;SDS011;28087;-33.874;151.240;2022-09-14T15:34:56;5.10;;;1.27;;
20794;SDS011;28087;-33.874;151.240;2022-09-14T15:37:32;6.20;;;1.20;;
20794;SDS011;28087;-33.874;151.240;2022-09-14T15:40:08;4.75;;;1.30;;
20794;SDS011;28087;-33.874;151.240;2022-09-14T15:42:45;6.80;;;1.00;;
20794;SDS011;28087;-33.874;151.240;2022-09-14T15:45:21;4.70;;;1.20;;
20794;SDS011;28087;-33.874;151.240;2022-09-14T15:47:57;7.47;;;1.30;;